Time;durP1;ratioP1;P1;durP2;ratioP2;P2;SDS_P1;SDS_P2;PMS_P1;PMS_P2;Temp;Humidity;BMP_temperature;BMP_pressure;BME280_temperature;BME280_humidity;BME280_pressure;Samples;Min_cycle;Max_cycle;Signal;HPM_P1;HPM_P2
2022/04/01 00:00:47;;;;;;;20.70;18.60;;;5.80;99.90;;;;;;4987834;28;20256;-76
2022/04/01 00:03:13;;;;;;;19.60;17.50;;;5.90;99.90;;;;;;4982381;28;20221;-76
2022/04/01 00:05:41;;;;;;;19.67;17.77;;;5.90;99.90;;;;;;4988504;28;20230;-75
2022/04/01 00:08:09;;;;;;;19.97;18.00;;;5.90;99.90;;;;;;4983754;28;20277;-76
2022/04/01 00:10:37;;;;;;;19.97;18.07;;;5.90;99.90;;;;;;4975143;28;20194;-76
2022/04/01 00:13:06;;;;;;;20.80;18.67;;;5.90;99.90;;;;;;4982154;28;20276;-76
2022/04/01 00:15:33;;;;;;;20.03;17.90;;;5.80;99.90;;;;;;4986221;28;20185;-76
2022/04/01 00:18:01;;;;;;;19.63;17.63;;;5.80;99.90;;;;;;4986268;28;20198;-76
2022/04/01 00:20:28;;;;;;;19.67;17.83;;;5.80;99.90;;;;;;4985345;28;20198;-76
2022/04/01 00:22:56;;;;;;;19.03;17.13;;;5.80;99.90;;;;;;4986397;28;20706;-76
2022/04/01 00:25:23;;;;;;;20.77;18.67;;;5.70;99.90;;;;;;4984062;28;20214;-76
2022/04/01 00:27:50;;;;;;;20.60;18.60;;;5.70;99.90;;;;;;4985264;28;20293;-76
2022/04/01 00:30:19;;;;;;;21.73;19.40;;;5.60;99.90;;;;;;4983454;28;20681;-76
2022/04/01 00:32:46;;;;;;;20.43;18.33;;;5.60;99.90;;;;;;4986063;28;20217;-76
2022/04/01 00:35:13;;;;;;;21.50;19.03;;;5.70;99.90;;;;;;4984250;28;20241;-75
2022/04/01 00:37:40;;;;;;;22.40;19.50;;;5.70;99.90;;;;;;4984985;28;20241;-76
2022/04/01 00:40:12;;;;;;;20.37;18.20;;;5.70;99.90;;;;;;4985454;28;20194;-76
2022/04/01 00:42:39;;;;;;;21.27;18.77;;;5.70;99.90;;;;;;4975249;28;20303;-76
2022/04/01 00:45:08;;;;;;;20.03;18.07;;;5.70;99.90;;;;;;4985935;28;20232;-76
2022/04/01 00:47:36;;;;;;;19.97;17.87;;;5.60;99.90;;;;;;4983322;28;20201;-76
2022/04/01 00:50:03;;;;;;;20.40;18.33;;;5.60;99.90;;;;;;4985880;28;20202;-76
2022/04/01 00:52:30;;;;;;;19.83;17.83;;;5.60;99.90;;;;;;4983598;28;20708;-76
2022/04/01 00:54:59;;;;;;;19.67;17.63;;;5.60;99.90;;;;;;4987521;28;20194;-76
2022/04/01 00:57:27;;;;;;;20.37;18.37;;;5.60;99.90;;;;;;4978099;28;20207;-76
2022/04/01 00:59:55;;;;;;;18.70;16.80;;;5.60;99.90;;;;;;4985617;28;20194;-76
2022/04/01 01:02:22;;;;;;;19.07;17.27;;;5.50;99.90;;;;;;4982314;28;20313;-75
2022/04/01 01:04:50;;;;;;;19.73;17.83;;;5.60;99.90;;;;;;4982819;28;20198;-75
2022/04/01 01:07:17;;;;;;;19.23;17.30;;;5.50;99.90;;;;;;4985414;28;20190;-76
2022/04/01 01:09:44;;;;;;;18.87;16.97;;;5.50;99.90;;;;;;4982266;28;20197;-76
2022/04/01 01:12:12;;;;;;;17.77;16.00;;;5.40;99.90;;;;;;4975502;28;20231;-76
2022/04/01 01:14:41;;;;;;;18.23;16.43;;;5.40;99.90;;;;;;4983017;28;20225;-76
2022/04/01 01:17:11;;;;;;;19.00;17.10;;;5.50;99.90;;;;;;4981070;28;20197;-76
2022/04/01 01:19:39;;;;;;;18.63;16.93;;;5.40;99.90;;;;;;4979986;28;20250;-76
2022/04/01 01:22:08;;;;;;;18.43;16.73;;;5.40;99.90;;;;;;4981026;28;20264;-76
2022/04/01 01:24:39;;;;;;;19.23;17.13;;;5.50;99.90;;;;;;4976343;28;20591;-76
2022/04/01 01:27:07;;;;;;;19.50;17.70;;;5.50;99.90;;;;;;4985225;28;20700;-76
2022/04/01 01:29:39;;;;;;;18.93;17.13;;;5.50;99.90;;;;;;4980289;28;20355;-76
2022/04/01 01:32:09;;;;;;;18.67;16.93;;;5.50;99.90;;;;;;4980282;28;20209;-76
2022/04/01 01:34:41;;;;;;;20.33;17.23;;;5.50;99.90;;;;;;4974108;28;20570;-75
2022/04/01 01:37:10;;;;;;;19.00;17.10;;;5.60;99.90;;;;;;4980519;28;20201;-76
2022/04/01 01:39:41;;;;;;;18.13;16.43;;;5.50;99.90;;;;;;4972872;28;20201;-76
2022/04/01 01:42:10;;;;;;;18.97;17.07;;;5.50;99.90;;;;;;4980631;28;20229;-76
2022/04/01 01:44:38;;;;;;;18.40;16.70;;;5.50;99.90;;;;;;4980484;28;20198;-76
2022/04/01 01:47:07;;;;;;;18.40;16.60;;;5.50;99.90;;;;;;4983312;28;20225;-76
2022/04/01 01:49:34;;;;;;;18.93;17.03;;;5.50;99.90;;;;;;4977177;28;20208;-76
2022/04/01 01:54:52;;;;;;;17.80;16.10;;;5.40;99.90;;;;;;4980514;28;20189;-76
2022/04/01 01:57:22;;;;;;;19.23;17.43;;;5.40;99.90;;;;;;4980287;28;20713;-76
2022/04/01 01:59:50;;;;;;;17.67;16.03;;;5.40;99.90;;;;;;4980084;28;20754;-76
2022/04/01 02:02:18;;;;;;;17.83;16.13;;;5.40;99.90;;;;;;4980785;28;20245;-76
2022/04/01 02:04:46;;;;;;;19.37;17.47;;;5.40;99.90;;;;;;4982468;28;20293;-76
2022/04/01 02:07:13;;;;;;;19.00;17.00;;;5.40;99.90;;;;;;4984638;28;20249;-76
2022/04/01 02:09:46;;;;;;;19.87;17.87;;;5.40;99.90;;;;;;4978635;28;20284;-76
2022/04/01 02:12:16;;;;;;;20.60;18.50;;;5.40;99.90;;;;;;4977324;28;20217;-75
2022/04/01 02:14:43;;;;;;;18.47;16.87;;;5.40;99.90;;;;;;4981955;28;20189;-75
2022/04/01 02:17:10;;;;;;;19.00;17.10;;;5.40;99.90;;;;;;4977010;28;20212;-76
2022/04/01 02:19:37;;;;;;;20.00;18.00;;;5.40;99.90;;;;;;4979975;28;20205;-76
2022/04/01 02:22:05;;;;;;;18.73;17.00;;;5.40;99.90;;;;;;4972124;28;20193;-76
2022/04/01 02:24:34;;;;;;;18.90;17.10;;;5.40;99.90;;;;;;4980051;28;20659;-76
2022/04/01 02:27:01;;;;;;;18.17;16.50;;;5.30;99.90;;;;;;4994715;28;20709;-76
2022/04/01 02:29:29;;;;;;;17.70;16.00;;;5.30;99.90;;;;;;4980124;28;20201;-75
2022/04/01 02:32:16;;;;;;;19.70;17.80;;;5.20;99.90;;;;;;4978558;28;20232;-77
2022/04/01 02:35:21;;;;;;;17.73;16.13;;;5.30;99.90;;;;;;4962183;28;20338;-75
2022/04/01 02:37:48;;;;;;;19.70;17.70;;;5.30;99.90;;;;;;4979750;28;20190;-76
2022/04/01 02:40:16;;;;;;;19.07;17.33;;;5.20;99.90;;;;;;4980140;28;20289;-77
2022/04/01 02:42:43;;;;;;;18.93;17.17;;;5.20;99.90;;;;;;4980172;28;20226;-77
2022/04/01 02:45:17;;;;;;;19.23;17.43;;;5.20;99.90;;;;;;4977296;28;20201;-78
2022/04/01 02:47:43;;;;;;;19.50;17.70;;;5.30;99.90;;;;;;4971803;28;20663;-78
2022/04/01 02:50:11;;;;;;;18.27;16.63;;;5.30;99.90;;;;;;4973108;28;20737;-77
2022/04/01 02:52:38;;;;;;;17.73;16.13;;;5.30;99.90;;;;;;4969723;28;20702;-78
2022/04/01 02:55:07;;;;;;;17.30;15.73;;;5.30;99.90;;;;;;4964540;28;20199;-77
2022/04/01 02:57:34;;;;;;;18.70;16.90;;;5.20;99.90;;;;;;4971318;28;20575;-78
2022/04/01 03:00:02;;;;;;;17.10;15.53;;;5.30;99.90;;;;;;4979995;28;20202;-77
2022/04/01 03:02:32;;;;;;;19.23;17.47;;;5.30;99.90;;;;;;4981772;28;20217;-78
2022/04/01 03:04:59;;;;;;;23.90;21.33;;;5.40;99.90;;;;;;4979671;28;20626;-77
2022/04/01 03:07:26;;;;;;;26.00;23.30;;;5.30;99.90;;;;;;4977644;28;20703;-78
2022/04/01 03:09:53;;;;;;;32.70;27.63;;;5.30;99.90;;;;;;4970429;28;20213;-78
2022/04/01 03:12:22;;;;;;;38.13;30.57;;;5.30;99.90;;;;;;4969757;28;20222;-80
2022/04/01 03:14:49;;;;;;;35.27;29.10;;;5.30;99.90;;;;;;4980159;28;20233;-79
2022/04/01 03:17:33;;;;;;;38.17;29.00;;;5.30;99.90;;;;;;4978388;28;20221;-80
2022/04/01 03:20:12;;;;;;;36.33;29.47;;;5.20;99.90;;;;;;4979717;28;20194;-78
2022/04/01 03:22:39;;;;;;;33.73;27.53;;;5.20;99.90;;;;;;4970811;28;20213;-79
2022/04/01 03:25:07;;;;;;;33.33;28.20;;;5.10;99.90;;;;;;4979559;28;20212;-77
2022/04/01 03:27:43;;;;;;;34.50;27.83;;;5.10;99.90;;;;;;4976190;28;20231;-77
2022/04/01 03:30:11;;;;;;;32.90;27.87;;;5.00;99.90;;;;;;4984267;28;20742;-75
2022/04/01 03:32:40;;;;;;;37.90;29.93;;;5.10;99.90;;;;;;4971032;28;20593;-77
2022/04/01 03:35:10;;;;;;;37.30;30.77;;;5.10;99.90;;;;;;4978521;28;20194;-77
2022/04/01 03:37:37;;;;;;;41.07;30.70;;;5.10;99.90;;;;;;4971570;28;20206;-77
2022/04/01 03:40:05;;;;;;;38.90;29.70;;;5.10;99.90;;;;;;4981337;28;20206;-78
2022/04/01 03:42:32;;;;;;;43.03;30.27;;;5.00;99.90;;;;;;4980285;28;20232;-77
2022/04/01 03:45:01;;;;;;;42.07;31.37;;;5.10;99.90;;;;;;4978556;28;20249;-77
2022/04/01 03:47:52;;;;;;;43.60;30.87;;;5.00;99.90;;;;;;4974898;28;20210;-77
2022/04/01 03:50:28;;;;;;;44.70;32.60;;;5.00;99.90;;;;;;4983875;28;20204;-77
2022/04/01 03:53:02;;;;;;;42.87;32.43;;;5.00;99.90;;;;;;4982791;28;20218;-77
2022/04/01 03:55:32;;;;;;;43.83;31.53;;;5.00;99.90;;;;;;4985066;28;20662;-77
2022/04/01 03:58:21;;;;;;;43.33;31.23;;;5.00;99.90;;;;;;4985822;28;20667;-77
2022/04/01 04:01:08;;;;;;;43.37;32.47;;;5.00;99.90;;;;;;4984274;28;20224;-77
2022/04/01 04:03:40;;;;;;;37.33;28.80;;;5.00;99.90;;;;;;4970617;28;20283;-77
2022/04/01 04:06:09;;;;;;;37.83;28.53;;;5.00;99.90;;;;;;4985715;28;20640;-77
2022/04/01 04:08:38;;;;;;;44.43;32.63;;;5.00;99.90;;;;;;4973955;28;20198;-77
2022/04/01 04:11:05;;;;;;;37.60;29.10;;;5.00;99.90;;;;;;4981403;28;20194;-76
2022/04/01 04:14:04;;;;;;;37.13;29.53;;;5.00;99.90;;;;;;4978053;28;20249;-79
2022/04/01 04:16:40;;;;;;;36.60;28.93;;;5.00;99.90;;;;;;4985296;28;20252;-78
2022/04/01 04:19:11;;;;;;;35.13;29.10;;;5.00;99.90;;;;;;4982528;28;20197;-78
2022/04/01 04:21:42;;;;;;;32.60;27.83;;;5.00;99.90;;;;;;4974288;28;20281;-78
2022/04/01 04:24:20;;;;;;;36.87;27.93;;;5.00;99.90;;;;;;4983663;28;20594;-78
2022/04/01 04:26:51;;;;;;;35.47;29.67;;;5.10;99.90;;;;;;4980183;28;20270;-78
2022/04/01 04:29:19;;;;;;;35.83;29.17;;;5.00;99.90;;;;;;4977934;28;20667;-77
2022/04/01 04:32:23;;;;;;;33.57;26.63;;;5.10;99.90;;;;;;4968130;28;20661;-78
2022/04/01 04:34:52;;;;;;;29.10;25.33;;;5.00;99.90;;;;;;4983230;28;20692;-78
2022/04/01 04:37:25;;;;;;;33.97;26.50;;;5.00;99.90;;;;;;4980866;28;20198;-78
2022/04/01 04:39:54;;;;;;;30.07;25.50;;;5.00;99.90;;;;;;4982966;28;20202;-79
2022/04/01 04:42:22;;;;;;;27.77;24.67;;;5.00;99.90;;;;;;4982922;28;20217;-79
2022/04/01 04:44:53;;;;;;;29.13;24.93;;;5.00;99.90;;;;;;4982199;28;20581;-78
2022/04/01 04:47:25;;;;;;;27.17;23.53;;;5.00;99.90;;;;;;4993471;28;20220;-78
2022/04/01 04:49:56;;;;;;;28.17;24.03;;;5.00;99.90;;;;;;4981736;28;20241;-78
2022/04/01 04:52:30;;;;;;;27.17;24.10;;;5.00;99.90;;;;;;4977353;28;20219;-78
2022/04/01 04:55:01;;;;;;;26.13;23.50;;;5.00;99.90;;;;;;4986634;28;20201;-78
2022/04/01 04:57:39;;;;;;;23.33;20.93;;;5.00;99.90;;;;;;4975368;28;20569;-78
2022/04/01 05:00:08;;;;;;;24.83;22.17;;;4.90;99.90;;;;;;4979134;28;20209;-78
2022/04/01 05:03:07;;;;;;;24.97;22.37;;;4.90;99.90;;;;;;4975569;28;20301;-78
2022/04/01 05:05:41;;;;;;;22.40;20.30;;;4.90;99.90;;;;;;4984533;28;20697;-78
2022/04/01 05:08:39;;;;;;;22.90;20.60;;;4.90;99.90;;;;;;4985690;28;20292;-79
2022/04/01 05:11:39;;;;;;;23.27;20.77;;;4.90;99.90;;;;;;4982811;28;20235;-78
2022/04/01 05:14:22;;;;;;;21.77;19.50;;;4.90;99.90;;;;;;4981947;28;20217;-78
2022/04/01 05:16:53;;;;;;;21.37;19.33;;;4.80;99.90;;;;;;4979014;28;20658;-78
2022/04/01 05:19:27;;;;;;;20.10;18.20;;;4.80;99.90;;;;;;4977343;28;20712;-78
2022/04/01 05:22:01;;;;;;;18.43;16.83;;;4.70;99.90;;;;;;4984062;28;20193;-78
2022/04/01 05:24:38;;;;;;;18.60;17.03;;;4.70;99.90;;;;;;4980744;28;20288;-78
2022/04/01 05:27:07;;;;;;;17.97;16.37;;;4.60;99.90;;;;;;4980575;28;20221;-77
2022/04/01 05:30:06;;;;;;;17.40;15.90;;;4.60;99.90;;;;;;4976587;28;20333;-77
2022/04/01 05:32:40;;;;;;;18.83;17.23;;;4.60;99.90;;;;;;4994482;23;20231;-80
2022/04/01 05:35:09;;;;;;;17.73;16.23;;;4.60;99.90;;;;;;4965043;28;20206;-80
2022/04/01 05:37:39;;;;;;;18.30;16.80;;;4.60;99.90;;;;;;4966415;28;20685;-79
2022/04/01 05:40:08;;;;;;;17.80;16.27;;;4.50;99.90;;;;;;4965338;28;20226;-79
2022/04/01 05:42:40;;;;;;;17.63;16.13;;;4.50;99.90;;;;;;4954398;28;20241;-80
2022/04/01 05:45:33;;;;;;;18.67;17.00;;;4.50;99.90;;;;;;4962779;28;20253;-78
2022/04/01 05:48:04;;;;;;;19.07;17.37;;;4.50;99.90;;;;;;4963643;28;20698;-80
2022/04/01 05:50:31;;;;;;;19.20;17.47;;;4.50;99.90;;;;;;4963226;28;20229;-78
2022/04/01 05:53:03;;;;;;;18.43;16.93;;;4.50;99.90;;;;;;4961691;28;20230;-79
2022/04/01 05:55:36;;;;;;;18.63;17.10;;;4.50;99.90;;;;;;4966337;28;20547;-79
2022/04/01 05:58:05;;;;;;;18.97;17.33;;;4.50;99.90;;;;;;4952442;28;20269;-79
2022/04/01 06:00:39;;;;;;;20.70;18.70;;;4.60;99.90;;;;;;4960365;28;20222;-80
2022/04/01 06:03:35;;;;;;;19.43;17.83;;;4.60;99.90;;;;;;4960179;28;20229;-79
2022/04/01 06:06:10;;;;;;;18.47;16.87;;;4.50;99.90;;;;;;4956282;28;20256;-80
2022/04/01 06:08:50;;;;;;;18.20;16.63;;;4.40;99.90;;;;;;4959427;28;20197;-79
2022/04/01 06:11:45;;;;;;;19.70;17.90;;;4.40;99.90;;;;;;4956612;28;20235;-80
2022/04/01 06:14:41;;;;;;;18.00;16.40;;;4.40;99.90;;;;;;4961295;28;20283;-80
2022/04/01 06:17:37;;;;;;;18.63;17.03;;;4.40;99.90;;;;;;4964680;28;20236;-80
2022/04/01 06:20:07;;;;;;;19.10;17.30;;;4.50;99.90;;;;;;4961401;28;20717;-78
2022/04/01 06:22:39;;;;;;;19.50;17.70;;;4.50;99.90;;;;;;4956621;28;20725;-80
2022/04/01 06:25:13;;;;;;;19.93;18.03;;;4.50;99.90;;;;;;4956988;28;20206;-79
2022/04/01 06:27:45;;;;;;;18.57;16.87;;;4.50;99.90;;;;;;4964252;28;20202;-79
2022/04/01 06:30:14;;;;;;;18.30;16.70;;;4.50;99.90;;;;;;4963932;28;20202;-80
2022/04/01 06:32:53;;;;;;;18.10;16.50;;;4.40;99.90;;;;;;4956790;28;20568;-79
2022/04/01 06:35:29;;;;;;;18.53;16.93;;;4.50;99.90;;;;;;4964676;28;20687;-78
2022/04/01 06:37:59;;;;;;;18.97;17.27;;;4.50;99.90;;;;;;4956614;28;20202;-78
2022/04/01 06:40:34;;;;;;;18.90;17.20;;;4.50;99.90;;;;;;4961026;28;20201;-80
2022/04/01 06:43:01;;;;;;;18.57;16.90;;;4.50;99.90;;;;;;4962127;28;20229;-80
2022/04/01 06:45:54;;;;;;;19.00;17.40;;;4.50;99.90;;;;;;4950372;28;20229;-80
2022/04/01 06:48:40;;;;;;;18.50;16.93;;;4.50;99.90;;;;;;4951813;28;20225;-79
2022/04/01 06:51:26;;;;;;;18.43;16.83;;;4.50;99.90;;;;;;4955611;28;20223;-80
2022/04/01 06:54:12;;;;;;;18.50;16.80;;;4.50;99.90;;;;;;4955128;28;20234;-79
2022/04/01 06:56:58;;;;;;;18.30;16.80;;;4.50;99.90;;;;;;4958478;28;20282;-80
2022/04/01 06:59:27;;;;;;;18.73;17.17;;;4.50;99.90;;;;;;4961631;28;20209;-80
2022/04/01 07:01:54;;;;;;;17.67;16.17;;;4.50;99.90;;;;;;4956354;28;20210;-78
2022/04/01 07:04:20;;;;;;;18.93;17.23;;;4.50;99.90;;;;;;4962939;28;20695;-80
2022/04/01 07:06:47;;;;;;;17.80;16.13;;;4.60;99.90;;;;;;4963784;28;20229;-79
2022/04/01 07:09:14;;;;;;;17.47;15.97;;;4.60;99.90;;;;;;4968412;28;20733;-80
2022/04/01 07:11:41;;;;;;;17.97;16.40;;;4.60;99.90;;;;;;4955078;28;20210;-78
2022/04/01 07:14:09;;;;;;;16.97;15.57;;;4.60;99.90;;;;;;4955794;28;20223;-78
2022/04/01 07:16:36;;;;;;;17.10;15.70;;;4.50;99.90;;;;;;4954168;28;20743;-80
2022/04/01 07:19:03;;;;;;;17.60;16.10;;;4.50;99.90;;;;;;4960626;28;20195;-79
2022/04/01 07:21:30;;;;;;;17.37;15.97;;;4.50;99.90;;;;;;4959788;28;20675;-80
2022/04/01 07:23:59;;;;;;;17.73;16.23;;;4.40;99.90;;;;;;4958589;28;20657;-78
2022/04/01 07:26:26;;;;;;;17.83;16.23;;;4.40;99.90;;;;;;4966171;28;20554;-80
2022/04/01 07:28:54;;;;;;;17.80;16.30;;;4.40;99.90;;;;;;4963674;28;20210;-78
2022/04/01 07:34:07;;;;;;;18.20;16.60;;;4.40;99.90;;;;;;4961388;28;20227;-80
2022/04/01 07:36:34;;;;;;;19.10;17.50;;;4.40;99.90;;;;;;4967235;28;20569;-79
2022/04/01 07:39:01;;;;;;;18.60;17.07;;;4.50;99.90;;;;;;4962610;28;20286;-79
2022/04/01 07:41:29;;;;;;;19.33;17.73;;;4.50;99.90;;;;;;4962512;28;20205;-79
2022/04/01 07:43:56;;;;;;;17.47;16.03;;;4.40;99.90;;;;;;4965453;28;20249;-79
2022/04/01 07:46:24;;;;;;;18.23;16.67;;;4.40;99.90;;;;;;4965485;28;20233;-78
2022/04/01 07:48:51;;;;;;;18.80;17.20;;;4.30;99.90;;;;;;4964493;28;20214;-78
2022/04/01 07:51:18;;;;;;;18.73;17.07;;;4.40;99.90;;;;;;4963248;28;20203;-80
2022/04/01 07:53:45;;;;;;;18.33;16.83;;;4.30;99.90;;;;;;4972187;28;20254;-80
2022/04/01 07:56:12;;;;;;;18.53;16.90;;;4.30;99.90;;;;;;4939899;28;20203;-80
2022/04/01 07:58:39;;;;;;;18.80;17.20;;;4.30;99.90;;;;;;4964176;28;20195;-79
2022/04/01 08:01:06;;;;;;;18.20;16.70;;;4.40;99.90;;;;;;4962824;28;20642;-79
2022/04/01 08:03:34;;;;;;;19.93;18.13;;;4.40;99.90;;;;;;4962560;28;20223;-80
2022/04/01 08:06:01;;;;;;;18.97;17.20;;;4.50;99.90;;;;;;4967289;28;20195;-80
2022/04/01 08:08:27;;;;;;;17.67;16.20;;;4.60;99.90;;;;;;4965101;28;20261;-79
2022/04/01 08:10:54;;;;;;;19.60;17.97;;;4.60;99.90;;;;;;4960942;28;20210;-79
2022/04/01 08:13:21;;;;;;;20.13;18.23;;;4.60;99.90;;;;;;4965944;28;20313;-80
2022/04/01 08:15:48;;;;;;;20.40;18.60;;;4.60;99.90;;;;;;4963961;28;20217;-80
2022/04/01 08:18:15;;;;;;;19.47;17.77;;;4.60;99.90;;;;;;4959586;28;20250;-80
2022/04/01 08:20:44;;;;;;;19.27;17.67;;;4.60;99.90;;;;;;4964619;28;20202;-80
2022/04/01 08:23:11;;;;;;;19.50;17.70;;;4.70;99.90;;;;;;4963967;28;20221;-80
2022/04/01 08:25:38;;;;;;;19.07;17.37;;;4.70;99.90;;;;;;4959288;28;20207;-79
2022/04/01 08:28:06;;;;;;;18.57;16.97;;;4.70;99.90;;;;;;4959010;28;20699;-80
2022/04/01 08:30:34;;;;;;;19.70;17.90;;;4.70;99.90;;;;;;4971527;28;20230;-79
2022/04/01 08:33:01;;;;;;;19.33;17.60;;;4.70;99.90;;;;;;4975099;28;20226;-79
2022/04/01 08:35:28;;;;;;;18.10;16.50;;;4.80;99.90;;;;;;4969684;28;20207;-79
2022/04/01 08:37:58;;;;;;;18.50;16.87;;;4.90;99.90;;;;;;4971880;28;20234;-80
2022/04/01 08:40:27;;;;;;;17.70;16.10;;;4.80;99.90;;;;;;4973780;28;20199;-79
2022/04/01 08:42:54;;;;;;;19.60;17.87;;;4.90;99.90;;;;;;4960728;28;20258;-80
2022/04/01 08:45:22;;;;;;;19.97;18.07;;;4.90;99.90;;;;;;4961988;28;20600;-80
2022/04/01 08:47:50;;;;;;;20.07;18.23;;;4.90;99.90;;;;;;4956653;28;20237;-80
2022/04/01 08:50:17;;;;;;;18.17;16.57;;;4.90;99.90;;;;;;4953537;28;20218;-80
2022/04/01 08:52:44;;;;;;;19.20;17.40;;;4.90;99.90;;;;;;4950423;28;20225;-80
2022/04/01 08:55:12;;;;;;;19.40;17.70;;;4.80;99.90;;;;;;4960638;28;20192;-80
2022/04/01 08:57:41;;;;;;;19.70;17.93;;;4.80;99.90;;;;;;4972752;28;20614;-80
2022/04/01 09:00:38;;;;;;;19.53;17.77;;;4.90;99.90;;;;;;4959797;28;20635;-80
2022/04/01 09:03:08;;;;;;;19.33;17.63;;;4.90;99.90;;;;;;4955327;28;20223;-80
2022/04/01 09:05:36;;;;;;;21.43;19.43;;;5.00;99.90;;;;;;4967358;28;20198;-80
2022/04/01 09:08:04;;;;;;;20.93;19.07;;;5.00;99.90;;;;;;4957839;28;20274;-79
2022/04/01 09:10:49;;;;;;;20.40;18.50;;;5.10;99.90;;;;;;4957784;28;20195;-80
2022/04/01 09:13:17;;;;;;;20.50;18.50;;;5.10;99.90;;;;;;4959864;28;20224;-80
2022/04/01 09:15:44;;;;;;;20.77;18.77;;;5.20;99.90;;;;;;4956804;28;20287;-80
2022/04/01 09:18:12;;;;;;;19.20;17.50;;;5.20;99.90;;;;;;4968247;28;20202;-80
2022/04/01 09:20:45;;;;;;;15.90;13.37;;;5.30;99.90;;;;;;4962499;28;20234;-79
2022/04/01 09:23:12;;;;;;;17.77;14.67;;;5.30;99.90;;;;;;4959574;28;20238;-80
2022/04/01 09:25:49;;;;;;;16.47;14.77;;;5.30;99.90;;;;;;4967210;28;20642;-79
2022/04/01 09:28:30;;;;;;;16.30;14.37;;;5.40;99.90;;;;;;4963313;28;20278;-80
2022/04/01 09:31:02;;;;;;;17.37;14.83;;;5.40;99.90;;;;;;4960415;28;20229;-79
2022/04/01 09:33:48;;;;;;;19.37;17.53;;;5.40;99.90;;;;;;4960526;28;20225;-79
2022/04/01 09:36:17;;;;;;;21.63;19.70;;;5.40;99.90;;;;;;4959054;28;20201;-80
2022/04/01 09:38:59;;;;;;;16.03;14.30;;;5.50;99.90;;;;;;4940422;28;20672;-80
2022/04/01 09:41:36;;;;;;;17.03;15.33;;;5.50;99.90;;;;;;4959596;28;20208;-80
2022/04/01 09:44:06;;;;;;;16.50;13.97;;;5.50;99.90;;;;;;4961264;28;20278;-80
2022/04/01 09:46:34;;;;;;;16.53;14.83;;;5.40;99.90;;;;;;4961704;28;20202;-79
2022/04/01 09:49:01;;;;;;;14.20;12.73;;;5.40;99.90;;;;;;4961627;28;20268;-79
2022/04/01 09:51:31;;;;;;;14.43;12.87;;;5.30;99.90;;;;;;4960684;28;20215;-78
2022/04/01 09:54:02;;;;;;;12.70;11.43;;;5.20;99.90;;;;;;4963060;28;20659;-79
2022/04/01 09:56:44;;;;;;;15.03;13.53;;;5.30;99.90;;;;;;4967391;28;20281;-79
2022/04/01 09:59:13;;;;;;;15.70;14.10;;;5.30;99.90;;;;;;4957960;28;20195;-79
2022/04/01 10:01:41;;;;;;;14.17;12.60;;;5.30;99.90;;;;;;4961186;28;20222;-80
2022/04/01 10:04:09;;;;;;;13.53;12.20;;;5.20;99.90;;;;;;4959240;28;20222;-79
2022/04/01 10:06:39;;;;;;;14.33;12.87;;;5.30;99.90;;;;;;4952317;28;20194;-80
2022/04/01 10:09:08;;;;;;;13.33;12.03;;;5.40;99.90;;;;;;4969440;28;20213;-78
2022/04/01 10:11:36;;;;;;;13.90;12.50;;;5.40;99.90;;;;;;4964451;28;20209;-80
2022/04/01 10:14:13;;;;;;;13.37;12.07;;;5.40;99.90;;;;;;4962851;28;20219;-78
2022/04/01 10:16:43;;;;;;;13.93;12.63;;;5.30;99.90;;;;;;4967697;28;20229;-79
2022/04/01 10:19:13;;;;;;;13.93;12.63;;;5.20;99.90;;;;;;4968582;28;20202;-80
2022/04/01 10:21:43;;;;;;;13.60;12.20;;;5.20;99.90;;;;;;4961136;28;20734;-80
2022/04/01 10:24:28;;;;;;;13.50;12.20;;;5.20;99.90;;;;;;4961125;28;20225;-78
2022/04/01 10:27:21;;;;;;;14.10;12.90;;;5.20;99.90;;;;;;4939933;28;20211;-80
2022/04/01 10:29:49;;;;;;;15.40;14.07;;;5.30;99.90;;;;;;4949809;28;20241;-80
2022/04/01 10:32:24;;;;;;;14.97;13.57;;;5.30;99.90;;;;;;4956624;28;20251;-78
2022/04/01 10:34:53;;;;;;;14.17;12.97;;;5.30;99.90;;;;;;4956630;28;20209;-80
2022/04/01 10:37:21;;;;;;;15.03;13.63;;;5.30;99.90;;;;;;4958229;28;20214;-79
2022/04/01 10:39:50;;;;;;;14.97;13.77;;;5.30;99.90;;;;;;4965692;28;20228;-79
2022/04/01 10:42:17;;;;;;;15.47;14.17;;;5.30;99.90;;;;;;4963267;28;20198;-78
2022/04/01 10:44:51;;;;;;;12.93;11.83;;;5.20;99.90;;;;;;4962642;28;20203;-80
2022/04/01 10:47:18;;;;;;;14.37;13.20;;;5.20;99.90;;;;;;4961061;28;20198;-79
2022/04/01 10:52:31;;;;;;;15.40;14.10;;;5.10;99.90;;;;;;4960938;28;20191;-80
2022/04/01 10:55:09;;;;;;;15.50;14.30;;;5.00;99.90;;;;;;4964149;28;20230;-80
2022/04/01 10:57:40;;;;;;;16.20;14.90;;;5.00;99.90;;;;;;4959949;28;20652;-80
2022/04/01 11:00:13;;;;;;;16.00;14.70;;;5.00;99.90;;;;;;4967293;28;20237;-80
2022/04/01 11:02:40;;;;;;;16.13;14.83;;;5.10;99.90;;;;;;4958930;28;20219;-79
2022/04/01 11:05:27;;;;;;;15.37;14.17;;;5.10;99.90;;;;;;4962885;28;20221;-80
2022/04/01 11:08:19;;;;;;;15.47;14.27;;;5.10;99.90;;;;;;4970876;28;20564;-79
2022/04/01 11:11:06;;;;;;;15.53;14.37;;;5.00;99.90;;;;;;4961150;28;20557;-80
2022/04/01 11:13:34;;;;;;;16.30;15.00;;;5.00;99.90;;;;;;4970457;28;20288;-79
2022/04/01 11:16:16;;;;;;;17.30;15.90;;;5.10;99.90;;;;;;4967175;28;20229;-79
2022/04/01 11:19:15;;;;;;;16.27;14.93;;;5.00;99.90;;;;;;4959505;28;20197;-80
2022/04/01 11:21:43;;;;;;;16.50;15.10;;;5.10;99.90;;;;;;4944512;29;20203;-80
2022/04/01 11:24:33;;;;;;;14.27;13.07;;;5.00;99.90;;;;;;4966729;28;20639;-79
2022/04/01 11:27:07;;;;;;;15.20;14.00;;;4.90;99.90;;;;;;4966109;28;20198;-80
2022/04/01 11:29:34;;;;;;;13.60;12.40;;;4.90;99.90;;;;;;4970378;28;20217;-82
2022/04/01 11:32:08;;;;;;;15.90;14.57;;;4.90;99.90;;;;;;4974023;28;20194;-80
2022/04/01 11:34:57;;;;;;;15.20;14.00;;;4.80;99.90;;;;;;4976491;28;20228;-83
2022/04/01 11:37:25;;;;;;;16.63;15.33;;;4.80;99.90;;;;;;4969307;28;20209;-81
2022/04/01 11:39:52;;;;;;;16.10;14.80;;;4.70;99.90;;;;;;4964593;28;20288;-80
2022/04/01 11:42:20;;;;;;;15.53;14.33;;;4.70;99.90;;;;;;4959651;28;20192;-81
2022/04/01 11:44:56;;;;;;;15.63;14.33;;;4.70;99.90;;;;;;4972927;28;20201;-81
2022/04/01 11:47:32;;;;;;;14.73;13.53;;;4.70;99.90;;;;;;4964080;28;20195;-81
2022/04/01 11:50:07;;;;;;;14.30;13.30;;;4.60;99.90;;;;;;4969728;28;20275;-82
2022/04/01 11:52:39;;;;;;;13.53;12.53;;;4.50;99.90;;;;;;4972367;28;20250;-81
2022/04/01 11:55:12;;;;;;;13.40;12.40;;;4.40;99.90;;;;;;4967940;28;20265;-80
2022/04/01 11:57:39;;;;;;;12.90;12.00;;;4.30;99.90;;;;;;4965726;28;20190;-82
2022/04/01 12:00:11;;;;;;;13.03;12.10;;;4.30;99.90;;;;;;4967669;28;20198;-81
2022/04/01 12:02:41;;;;;;;12.97;11.87;;;4.40;99.90;;;;;;4954131;28;20218;-80
2022/04/01 12:05:09;;;;;;;11.90;11.10;;;4.50;99.90;;;;;;4976450;28;20659;-80
2022/04/01 12:10:28;;;;;;;10.83;10.13;;;4.60;99.90;;;;;;4933505;28;20318;-81
2022/04/01 12:12:57;;;;;;;10.97;10.20;;;4.80;99.90;;;;;;4964528;28;20211;-83
2022/04/01 12:15:33;;;;;;;11.70;10.90;;;5.00;99.90;;;;;;4972036;28;20208;-82
2022/04/01 12:18:01;;;;;;;12.23;11.33;;;5.10;99.90;;;;;;4963355;28;20203;-83
2022/04/01 12:20:28;;;;;;;11.90;11.10;;;5.10;99.90;;;;;;4964356;28;20216;-80
2022/04/01 12:22:57;;;;;;;11.93;11.13;;;5.10;99.90;;;;;;4964118;28;20218;-82
2022/04/01 12:25:24;;;;;;;12.47;11.57;;;5.00;99.90;;;;;;4960656;28;20207;-83
2022/04/01 12:27:53;;;;;;;7.50;6.70;;;5.10;99.90;;;;;;4960657;28;20577;-81
2022/04/01 12:30:32;;;;;;;11.73;10.93;;;5.10;99.90;;;;;;4965965;28;20219;-82
2022/04/01 12:33:02;;;;;;;10.90;10.20;;;5.20;99.90;;;;;;4972342;28;20231;-81
2022/04/01 12:35:29;;;;;;;10.50;9.80;;;5.30;99.90;;;;;;4978655;28;20281;-82
2022/04/01 12:38:04;;;;;;;10.50;9.87;;;5.30;99.90;;;;;;4965925;28;20280;-81
2022/04/01 12:40:35;;;;;;;10.07;9.47;;;5.40;99.90;;;;;;4954405;28;20198;-81
2022/04/01 12:43:02;;;;;;;9.33;8.50;;;5.40;99.90;;;;;;4956136;28;20230;-82
2022/04/01 12:45:29;;;;;;;7.70;7.20;;;5.30;99.90;;;;;;4961388;28;20203;-82
2022/04/01 12:47:56;;;;;;;9.53;8.93;;;5.30;99.90;;;;;;4961697;28;20195;-82
2022/04/01 12:50:36;;;;;;;9.67;9.07;;;5.20;99.90;;;;;;4975808;28;20285;-83
2022/04/01 12:53:09;;;;;;;10.23;9.63;;;5.10;99.90;;;;;;4955135;28;20227;-80
2022/04/01 12:55:36;;;;;;;9.33;8.73;;;4.60;99.90;;;;;;4951447;28;20225;-83
2022/04/01 12:58:04;;;;;;;10.93;10.33;;;4.50;99.90;;;;;;4961108;28;20193;-81
2022/04/01 13:00:31;;;;;;;10.23;9.53;;;4.50;99.90;;;;;;4969621;28;20202;-83
2022/04/01 13:03:02;;;;;;;12.23;11.53;;;4.40;99.90;;;;;;4967525;28;20214;-81
2022/04/01 13:05:29;;;;;;;11.40;10.63;;;4.50;99.90;;;;;;4965756;28;20690;-81
2022/04/01 13:07:58;;;;;;;12.10;11.40;;;4.50;99.90;;;;;;4969731;28;20195;-82
2022/04/01 13:10:26;;;;;;;11.00;10.30;;;4.60;99.90;;;;;;4945335;29;20219;-81
2022/04/01 13:12:55;;;;;;;10.57;9.87;;;4.80;99.90;;;;;;4964624;28;20684;-82